Butcher Island Helipad

IN-0046 · Maharashtra, India

Storia di METAR IN-0046 · Butcher Island Helipad

Di seguito sono riportati i METAR degli ultimi giorni. Seleziona un anno per sfogliare i METAR più vecchi, dall'anno 2007 in poi.

18 luglio 2024

Tempo Codice Tempo meteorologico Temp. Vista Base nuvolosa Vento METAR/SPECI
04:26
L
26 °C 800 m 8.000 ft 360° 360° 0 kt METAR VABB 172256Z 00000KT 0800 RR27/1000 +RA SCT010 SCT018 FEW030CB OVC080 26/25 Q1001 TEMPO 0350 +RA
04:00
I
26 °C 2,5 km 8.000 ft 360° 360° 0 kt METAR VABB 172230Z 00000KT 2500 -RA SCT010 SCT018 FEW030CB OVC080 26/25 Q1001 TEMPO 1500 SHRA
03:30
I
26 °C 2,5 km 8.000 ft 270° 270° 4 kt METAR VABB 172200Z 27004KT 2500 -RA SCT010 SCT018 FEW030CB OVC080 26/25 Q1001 TEMPO 1500 SHRA
03:00
I
26 °C 2,5 km 8.000 ft 220° 220° 5 kt METAR VABB 172130Z 22005KT 2500 -RA SCT010 SCT018 FEW030CB OVC080 26/25 Q1001 TEMPO 1500 SHRA
02:30
I
26 °C 2,5 km 8.000 ft 230° 230° 6 kt METAR VABB 172100Z 23006KT 2500 -RA SCT010 SCT018 FEW030CB OVC080 26/24 Q1001 TEMPO 1500 SHRA
02:00
I
27 °C 2,5 km 8.000 ft 240° 240° 7 kt METAR VABB 172030Z 24007KT 2500 -RA SCT010 SCT018 FEW030CB OVC080 27/26 Q1002 TEMPO 1500 SHRA
01:30
I
27 °C 2,5 km 9.000 ft 240° 240° 4 kt METAR VABB 172000Z 24004KT 2500 BR FEW012 SCT018 FEW030CB BKN090 27/26 Q1002 TEMPO 1500 SHRA
01:00
I
27 °C 2,5 km 9.000 ft 160° 160° 3 kt METAR VABB 171930Z 16003KT 2500 BR FEW012 SCT018 FEW030CB BKN090 27/25 Q1002 TEMPO 1500 SHRA
00:30
I
27 °C 2,5 km 8.000 ft 190° 190° 5 kt METAR VABB 171900Z 19005KT 2500 DZ SCT010 SCT018 FEW030CB OVC080 27/25 Q1003 TEMPO 1500 SHRA
00:00
I
27 °C 2,5 km 8.000 ft 180° 180° 3 kt METAR VABB 171830Z 18003KT 2500 -RA SCT010 SCT018 FEW030CB OVC080 27/25 Q1003 TEMPO 1500 SHRA

17 luglio 2024

Tempo Codice Tempo meteorologico Temp. Vista Base nuvolosa Vento METAR/SPECI
23:30
I
26 °C 2,5 km 8.000 ft 110° 110° 5 kt METAR VABB 171800Z 11005KT 2500 -RA SCT010 SCT018 FEW030CB OVC080 26/25 Q1003 TEMPO 1500 SHRA
23:00
I
27 °C 2,5 km 8.000 ft 170° 170° 3 kt METAR VABB 171730Z 17003KT 2500 -RA SCT010 SCT018 FEW030CB OVC080 27/25 Q1003 TEMPO 1500 SHRA
22:30
I
26 °C 2,5 km 8.000 ft 190° 190° 3 kt METAR VABB 171700Z 19003KT 2500 -RA SCT010 SCT018 FEW030CB OVC080 26/25 Q1003 TEMPO 1500 SHRA
22:00
I
26 °C 2,5 km 8.000 ft 210° 210° 3 kt METAR VABB 171630Z 21003KT 2500 -RA SCT010 SCT018 FEW030CB OVC080 26/25 Q1003 TEMPO 1500 SHRA
21:30
I
26 °C 2,1 km 8.000 ft 190° 190° 3 kt METAR VABB 171600Z 19003KT 2100 -RA SCT010 SCT018 FEW030CB OVC080 26/25 Q1003 TEMPO 1500 SHRA
21:00
I
26 °C 2,1 km 8.000 ft 190° 190° 3 kt METAR VABB 171530Z 19003KT 2100 -RA SCT010 SCT018 FEW030CB OVC080 26/25 Q1003 TEMPO 1500 SHRA
20:30
I
27 °C 2,1 km 8.000 ft 230° 230° 8 kt METAR VABB 171500Z 23008KT 2100 -RA SCT010 SCT018 FEW030CB OVC080 27/25 Q1002 TEMPO 1500 SHRA
20:00
I
27 °C 2,1 km 8.000 ft 250° 250° 6 kt METAR VABB 171430Z 25006KT 2100 -RA SCT010 SCT018 FEW030CB OVC080 27/26 Q1002 TEMPO 1500 SHRA
19:30
I
27 °C 1,5 km 8.000 ft 260° 260° 6 kt METAR VABB 171400Z 26006KT 1500 -RA SCT010 SCT018 FEW030CB OVC080 27/25 Q1002 TEMPO 0800 +SHRA
19:00
L
28 °C 1 km 8.000 ft 220° 220° 9 kt METAR VABB 171330Z 22009KT 1000 R27/1200 RA SCT010 SCT018 FEW030CB OVC080 28/25 Q1001 TEMPO 0800 +SHRA
18:30
I
28 °C 3 km 9.000 ft 220° 220° 8 kt METAR VABB 171300Z 22008KT 3000 HZ SCT018 FEW030CB BKN090 28/25 Q1001 NOSIG
18:00
I
28 °C 3 km 9.000 ft 220° 220° 9 kt METAR VABB 171230Z 22009KT 3000 HZ SCT018 FEW030CB BKN090 28/24 Q1001 NOSIG
17:30
I
28 °C 3 km 9.000 ft 230° 230° 8 - 18 kt METAR VABB 171200Z 23008G18KT 3000 HZ SCT018 FEW030CB BKN090 28/24 Q1000 NOSIG
17:00
I
29 °C 3 km 9.000 ft 220° 220° 10 - 20 kt METAR VABB 171130Z 22010G20KT 3000 HZ SCT018 FEW030CB BKN090 29/24 Q1000 NOSIG
16:30
I
29 °C 3 km 9.000 ft 220° 220° 10 - 20 kt METAR VABB 171100Z 22010G20KT 3000 HZ SCT018 FEW030CB BKN090 29/25 Q1001 NOSIG
16:00
I
29 °C 3 km 9.000 ft 230° 230° 7 - 17 kt METAR VABB 171030Z 23007G17KT 3000 HZ SCT018 FEW030CB BKN090 29/25 Q1001 NOSIG
15:30
I
30 °C 3 km 9.000 ft 210° 210° 12 - 22 kt METAR VABB 171000Z 21012G22KT 3000 HZ SCT018 FEW025TCU BKN090 30/25 Q1001 NOSIG
15:00
I
30 °C 3 km 9.000 ft 210° 210° 12 - 22 kt METAR VABB 170930Z 21012G22KT 3000 HZ SCT018 FEW030CB BKN090 30/25 Q1001 NOSIG
14:30
I
31 °C 3 km 9.000 ft 220° 220° 10 - 20 kt METAR VABB 170900Z 22010G20KT 3000 HZ SCT018 FEW030CB BKN090 31/25 Q1001 NOSIG
14:00
I
30 °C 3 km 9.000 ft 230° 230° 8 - 18 kt METAR VABB 170830Z 23008G18KT 3000 HZ SCT018 FEW030CB BKN090 30/25 Q1002 NOSIG
13:30
I
30 °C 3 km 10.000 ft 220° 220° 10 - 20 kt METAR VABB 170800Z 22010G20KT 3000 HZ SCT020 FEW025TCU BKN100 30/25 Q1002 NOSIG
13:00
I
30 °C 2,5 km 9.000 ft 190° 190° 7 - 17 kt METAR VABB 170730Z 19007G17KT 2500 HZ SCT018 FEW025TCU BKN090 30/25 Q1002 NOSIG
12:30
I
30 °C 2,5 km 9.000 ft 230° 230° 7 - 17 kt METAR VABB 170700Z 23007G17KT 2500 HZ SCT018 FEW025TCU BKN090 30/25 Q1002 NOSIG
12:00
I
30 °C 2,5 km 9.000 ft 200° 200° 8 - 18 kt METAR VABB 170630Z 20008G18KT 2500 HZ SCT018 FEW025TCU BKN090 30/25 Q1003 NOSIG
11:30
I
29 °C 2,5 km 9.000 ft 200° 200° 8 kt METAR VABB 170600Z 20008KT 2500 HZ SCT018 FEW025TCU BKN090 29/26 Q1003 NOSIG
11:00
I
28 °C 2,1 km 9.000 ft 180° 180° 10 kt METAR VABB 170530Z 18010KT 2100 -RA FEW012 SCT018 FEW025TCU BKN090 28/26 Q1003 TEMPO 1500 SHRA
10:30
I
29 °C 2,5 km 9.000 ft 180° 180° 10 - 20 kt METAR VABB 170500Z 18010G20KT 2500 HZ SCT018 FEW025TCU BKN090 29/25 Q1003 BECMG 3000 HZ
10:00
I
28 °C 2,5 km 9.000 ft 170° 170° 7 kt METAR VABB 170430Z 17007KT 2500 HZ FEW012 SCT018 FEW025TCU BKN090 28/25 Q1003 BECMG 1500 SHRA
09:30
I
27 °C 2,5 km 9.000 ft 160° 160° 8 kt METAR VABB 170400Z 16008KT 2500 HZ SCT018 FEW025TCU BKN090 27/25 Q1003 NOSIG
09:00
I
27 °C 2,5 km 9.000 ft 180° 180° 4 kt METAR VABB 170330Z 18004KT 2500 HZ SCT018 FEW025TCU BKN090 27/25 Q1003 NOSIG
08:30
I
27 °C 2,5 km 9.000 ft 170° 170° 7 kt METAR VABB 170300Z 17007KT 2500 -DZ FEW012 SCT018 FEW025TCU BKN090 27/25 Q1003 TEMPO 1500 SHRA
08:00
I
27 °C 2,5 km 10.000 ft 170° 170° 5 kt METAR VABB 170230Z 17005KT 2500 HZ SCT018 SCT025 BKN100 27/24 Q1002 NOSIG
07:30
I
26 °C 3 km 10.000 ft 160° 160° 5 kt METAR VABB 170200Z 16005KT 3000 HZ SCT020 BKN100 26/24 Q1002 NOSIG
07:00
I
26 °C 3 km 10.000 ft 180° 180° 4 kt METAR VABB 170130Z 18004KT 3000 HZ SCT020 BKN100 26/24 Q1001 NOSIG
06:30
I
26 °C 3 km 10.000 ft 180° 180° 4 kt METAR VABB 170100Z 18004KT 3000 HZ SCT020 BKN100 26/24 Q1001 NOSIG
06:00
I
26 °C 3 km 10.000 ft 170° 170° 5 kt METAR VABB 170030Z 17005KT 3000 HZ SCT020 BKN100 26/24 Q1000 NOSIG
05:30
I
26 °C 2,5 km 10.000 ft 170° 170° 4 kt METAR VABB 170000Z 17004KT 2500 HZ SCT020 BKN100 26/24 Q1000 NOSIG
05:00
I
26 °C 2,5 km 10.000 ft 180° 180° 7 kt METAR VABB 162330Z 18007KT 2500 BR SCT020 BKN100 26/24 Q1000 NOSIG
04:30
I
26 °C 2,5 km 9.000 ft 160° 160° 6 kt METAR VABB 162300Z 16006KT 2500 BR FEW012 SCT018 FEW025TCU BKN090 26/24 Q0999 NOSIG
04:00
I
26 °C 2,5 km 9.000 ft 150° 150° 5 kt METAR VABB 162230Z 15005KT 2500 BR FEW012 SCT018 FEW025TCU BKN090 26/24 Q0999 NOSIG
03:30
I
26 °C 2,5 km 9.000 ft 150° 150° 4 kt METAR VABB 162200Z 15004KT 2500 BR FEW012 SCT018 FEW025TCU BKN090 26/24 Q1000 NOSIG
03:00
I
26 °C 2,5 km 9.000 ft 150° 150° 5 kt METAR VABB 162130Z 15005KT 2500 BR FEW012 SCT018 FEW025TCU BKN090 26/24 Q1000 NOSIG
02:30
I
26 °C 2,5 km 9.000 ft 160° 160° 4 kt METAR VABB 162100Z 16004KT 2500 BR SCT018 FEW025TCU BKN090 26/24 Q1000 TEMPO 1500 SHRA
02:00
I
26 °C 2,5 km 9.000 ft 160° 160° 4 kt METAR VABB 162030Z 16004KT 2500 BR SCT018 FEW025TCU BKN090 26/24 Q1001 TEMPO 1500 SHRA
01:30
I
27 °C 3 km 10.000 ft 170° 170° 3 kt METAR VABB 162000Z 17003KT 3000 BR SCT020 BKN100 27/24 Q1001 NOSIG
01:00
I
27 °C 3 km 10.000 ft 170° 170° 4 kt METAR VABB 161930Z 17004KT 3000 BR SCT020 BKN100 27/24 Q1001 NOSIG
00:30
I
27 °C 3 km 10.000 ft 180° 180° 4 kt METAR VABB 161900Z 18004KT 3000 BR SCT020 BKN100 27/25 Q1001 NOSIG
00:00
I
27 °C 3 km 10.000 ft 190° 190° 5 kt METAR VABB 161830Z 19005KT 3000 BR SCT020 BKN100 27/25 Q1002 NOSIG

16 luglio 2024

Tempo Codice Tempo meteorologico Temp. Vista Base nuvolosa Vento METAR/SPECI
23:30
I
27 °C 3 km 10.000 ft 360° 360° 0 kt METAR VABB 161800Z 00000KT 3000 BR SCT020 BKN100 27/25 Q1002 NOSIG
23:00
I
27 °C 3 km 10.000 ft 190° 190° 4 kt METAR VABB 161730Z 19004KT 3000 BR SCT020 BKN100 27/25 Q1002 NOSIG
22:30
I
27 °C 3 km 10.000 ft 200° 200° 3 kt METAR VABB 161700Z 20003KT 3000 BR SCT020 BKN100 27/24 Q1002 NOSIG
22:00
I
27 °C 3 km 10.000 ft 360° 360° 0 kt METAR VABB 161630Z 00000KT 3000 BR SCT020 BKN100 27/24 Q1002 NOSIG
21:30
I
27 °C 3 km 10.000 ft 190° 190° 4 kt METAR VABB 161600Z 19004KT 3000 BR SCT020 BKN100 27/24 Q1001 NOSIG
21:00
I
27 °C 3 km 10.000 ft 210° 210° 4 kt METAR VABB 161530Z 21004KT 3000 BR SCT020 BKN100 27/23 Q1001 NOSIG
20:30
I
27 °C 3 km 9.000 ft 220° 220° 5 kt METAR VABB 161500Z 22005KT 3000 BR SCT018 SCT025 BKN090 27/23 Q1001 NOSIG
20:00
I
27 °C 3 km 9.000 ft 230° 230° 6 kt METAR VABB 161430Z 23006KT 3000 BR SCT018 SCT025 BKN090 27/23 Q1001 NOSIG
19:30
I
27 °C 2,5 km 9.000 ft 230° 230° 7 kt METAR VABB 161400Z 23007KT 2500 BR SCT018 SCT025 BKN090 27/23 Q1000 BECMG 3000 HZ BR
19:00
I
27 °C 2,5 km 9.000 ft 230° 230° 6 kt METAR VABB 161330Z 23006KT 2500 BR SCT010 SCT018 FEW025TCU BKN090 27/23 Q1000 NOSIG
18:30
I
28 °C 2,5 km 8.000 ft 240° 240° 8 kt METAR VABB 161300Z 24008KT 2500 HZ SCT010 SCT018 FEW025TCU BKN080 28/24 Q1000 NOSIG
18:00
I
28 °C 2,5 km 8.000 ft 250° 250° 9 kt METAR VABB 161230Z 25009KT 2500 BR SCT010 SCT018 FEW025TCU BKN080 28/24 Q1000 NOSIG
17:30
I
28 °C 2,5 km 8.000 ft 260° 260° 7 kt METAR VABB 161200Z 26007KT 2500 BR SCT010 SCT018 FEW025TCU BKN080 28/24 Q0999 NOSIG
17:00
I
28 °C 2,5 km 8.000 ft 240° 240° 10 kt METAR VABB 161130Z 24010KT 2500 BR SCT010 SCT018 FEW025TCU BKN080 28/25 Q0999 NOSIG
16:30
I
27 °C 2,5 km 8.000 ft 250° 250° 10 kt METAR VABB 161100Z 25010KT 2500 BR SCT010 SCT018 FEW025TCU BKN080 27/24 Q0999 NOSIG
16:00
I
27 °C 2,1 km 8.000 ft 240° 240° 7 kt METAR VABB 161030Z 24007KT 2100 -RA SCT010 SCT018 FEW025TCU BKN080 27/24 Q1000 TEMPO 1500 SHRA
15:30
I
27 °C 3 km 9.000 ft 230° 230° 11 kt METAR VABB 161000Z 23011KT 3000 HZ SCT012 SCT018 FEW025TCU BKN090 27/25 Q1000 TEMPO 1500 SHRA
15:00
I
28 °C 3 km 9.000 ft 230° 230° 9 kt METAR VABB 160930Z 23009KT 3000 HZ SCT012 SCT018 FEW025TCU BKN090 28/25 Q1000 TEMPO 1500 SHRA
14:30
I
27 °C 3 km 9.000 ft 210° 210° 9 kt METAR VABB 160900Z 21009KT 3000 HZ FEW012 SCT018 FEW025TCU BKN090 27/25 Q1000 TEMPO 1500 SHRA
14:00
I
27 °C 2,2 km 9.000 ft 220° 220° 11 kt METAR VABB 160830Z 22011KT 2200 -RA FEW012 SCT018 FEW025TCU BKN090 27/25 Q1000 TEMPO 1500 SHRA
13:30
I
28 °C 3 km 9.000 ft 220° 220° 10 kt METAR VABB 160800Z 22010KT 3000 HZ FEW012 SCT018 FEW025TCU BKN090 28/24 Q1000 NOSIG
13:00
I
28 °C 2,5 km 9.000 ft 190° 190° 7 kt METAR VABB 160730Z 19007KT 2500 HZ FEW012 SCT018 FEW025TCU OVC090 28/24 Q1001 NOSIG
12:30
I
27 °C 2,5 km 9.000 ft 180° 180° 7 - 17 kt METAR VABB 160700Z 18007G17KT 2500 HZ FEW012 SCT018 FEW025TCU BKN090 27/24 Q1001 NOSIG
12:00
I
28 °C 2,5 km 9.000 ft 170° 170° 10 - 20 kt METAR VABB 160630Z 17010G20KT 2500 HZ FEW012 SCT018 FEW025TCU BKN090 28/24 Q1001 NOSIG
11:30
I
28 °C 2,5 km 9.000 ft 180° 180° 9 kt METAR VABB 160600Z 18009KT 2500 HZ FEW012 SCT018 FEW025TCU BKN090 28/24 Q1001 NOSIG
11:00
I
28 °C 2,5 km 9.000 ft 190° 190° 10 kt METAR VABB 160530Z 19010KT 2500 HZ FEW012 SCT018 FEW025TCU BKN090 28/24 Q1001 NOSIG
10:30
I
27 °C 2,5 km 9.000 ft 180° 180° 10 kt METAR VABB 160500Z 18010KT 2500 HZ FEW012 SCT018 FEW025TCU BKN090 27/24 Q1001 NOSIG
10:00
I
28 °C 2,5 km 9.000 ft 190° 190° 8 kt METAR VABB 160430Z 19008KT 2500 HZ FEW012 SCT018 FEW025TCU OVC090 28/25 Q1001 TEMPO 1500 SHRA
09:30
I
28 °C 2,5 km 9.000 ft 170° 170° 5 kt METAR VABB 160400Z 17005KT 2500 HZ FEW012 SCT018 FEW025TCU BKN090 28/24 Q1001 NOSIG
09:00
I
27 °C 2,5 km 9.000 ft 160° 160° 6 kt METAR VABB 160330Z 16006KT 2500 HZ FEW012 SCT018 FEW025TCU BKN090 27/25 Q1001 NOSIG
08:30
I
27 °C 2,1 km 9.000 ft 160° 160° 6 kt METAR VABB 160300Z 16006KT 2100 HZ FEW012 SCT018 FEW025TCU OVC090 27/24 Q1001 TEMPO 1500 SHRA
08:00
I
26 °C 2,1 km 9.000 ft 160° 160° 4 kt METAR VABB 160230Z 16004KT 2100 -RA SCT010 SCT018 FEW025TCU OVC090 26/24 Q1001 TEMPO 1500 SHRA
07:30
I
26 °C 2,1 km 9.000 ft 150° 150° 3 kt METAR VABB 160200Z 15003KT 2100 -RA SCT012 SCT018 FEW025TCU OVC090 26/24 Q1000 TEMPO 1500 SHRA
07:00
I
26 °C 2,1 km 9.000 ft 150° 150° 4 kt METAR VABB 160130Z 15004KT 2100 VCSH SCT012 SCT018 FEW025TCU OVC090 26/24 Q1000 TEMPO 1500 SHRA
06:30
I
26 °C 2,1 km 9.000 ft 170° 170° 3 kt METAR VABB 160100Z 17003KT 2100 BR SCT012 SCT018 FEW025TCU OVC090 26/25 Q1000 TEMPO 1500 SHRA
06:00
I
26 °C 2,1 km 9.000 ft 150° 150° 3 kt METAR VABB 160030Z 15003KT 2100 BR SCT012 SCT018 FEW025TCU OVC090 26/25 Q1000 TEMPO 1500 SHRA
05:30
I
26 °C 1,8 km 9.000 ft 360° 360° 0 kt METAR VABB 160000Z 00000KT 1800 -RA SCT012 SCT018 FEW025TCU OVC090 26/25 Q0999 TEMPO 1500 SHRA
05:00
I
26 °C 2,1 km 9.000 ft 150° 150° 3 kt METAR VABB 152330Z 15003KT 2100 -RA SCT012 SCT018 FEW025TCU OVC090 26/25 Q0999 TEMPO 1500 SHRA
04:30
I
26 °C 2,2 km 9.000 ft 170° 170° 4 kt METAR VABB 152300Z 17004KT 2200 -DZ FEW012 SCT018 FEW025TCU BKN090 26/25 Q0999 TEMPO 1500 SHRA
04:00
I
26 °C 2,2 km 9.000 ft 150° 150° 3 kt METAR VABB 152230Z 15003KT 2200 HZ SCT018 FEW025TCU BKN090 26/25 Q0999 NOSIG
03:30
I
26 °C 2,2 km 9.000 ft 170° 170° 3 kt METAR VABB 152200Z 17003KT 2200 HZ SCT018 FEW025TCU BKN090 26/24 Q0999 NOSIG
03:00
I
26 °C 2,2 km 9.000 ft 200° 200° 3 kt METAR VABB 152130Z 20003KT 2200 HZ SCT018 FEW025TCU BKN090 26/24 Q0999 NOSIG
02:30
I
26 °C 2,2 km 9.000 ft 160° 160° 4 kt METAR VABB 152100Z 16004KT 2200 HZ SCT018 BKN090 26/24 Q0999 NOSIG
02:00
I
26 °C 2,2 km 9.000 ft 360° 360° 0 kt METAR VABB 152030Z 00000KT 2200 HZ SCT018 BKN090 26/24 Q0999 NOSIG
01:30
I
26 °C 2,2 km 9.000 ft 230° 230° 3 kt METAR VABB 152000Z 23003KT 2200 HZ SCT018 FEW025TCU BKN090 26/24 Q1000 NOSIG
01:00
I
26 °C 2,2 km 9.000 ft 360° 360° 0 kt METAR VABB 151930Z 00000KT 2200 HZ SCT018 FEW025TCU BKN090 26/25 Q1000 TEMPO 1500 SHRA
00:30
I
26 °C 2,2 km 9.000 ft 180° 180° 3 kt METAR VABB 151900Z 18003KT 2200 HZ FEW012 SCT018 FEW030CB BKN090 26/24 Q1000 TEMPO 1500 SHRA
00:00
I
26 °C 2,2 km 9.000 ft 160° 160° 3 kt METAR VABB 151830Z 16003KT 2200 -DZ FEW012 SCT018 FEW030CB BKN090 26/25 Q1001 TEMPO 1500 SHRA

15 luglio 2024

Tempo Codice Tempo meteorologico Temp. Vista Base nuvolosa Vento METAR/SPECI
23:30
I
27 °C 2,2 km 9.000 ft 230° 230° 5 kt METAR VABB 151800Z 23005KT 2200 HZ FEW012 SCT018 FEW030CB BKN090 27/25 Q1001 TEMPO 1500 SHRA
23:00
I
26 °C 2,2 km 9.000 ft 200° 200° 3 kt METAR VABB 151730Z 20003KT 2200 -DZ FEW012 SCT018 FEW030CB BKN090 26/24 Q1001 TEMPO 1500 SHRA
22:30
I
26 °C 2,2 km 9.000 ft 220° 220° 3 kt METAR VABB 151700Z 22003KT 2200 -DZ FEW012 SCT018 FEW030CB BKN090 26/24 Q1001 TEMPO 1500 SHRA
22:00
I
26 °C 2,1 km 9.000 ft 130° 130° 3 kt METAR VABB 151630Z 13003KT 2100 -DZ FEW012 SCT018 FEW030CB BKN090 26/24 Q1001 TEMPO 1500 SHRA
21:30
I
26 °C 2,1 km 10.000 ft 160° 160° 4 kt METAR VABB 151600Z 16004KT 2100 BR SCT018 FEW025TCU BKN100 26/24 Q1001 NOSIG
21:00
I
27 °C 2,1 km 10.000 ft 200° 200° 4 kt METAR VABB 151530Z 20004KT 2100 BR SCT018 FEW025TCU BKN100 27/25 Q1001 NOSIG
20:30
I
27 °C 2,1 km 10.000 ft 200° 200° 5 kt METAR VABB 151500Z 20005KT 2100 BR SCT018 FEW025TCU BKN100 27/25 Q1001 NOSIG
20:00
I
27 °C 2,1 km 10.000 ft 200° 200° 5 kt METAR VABB 151430Z 20005KT 2100 BR FEW012 SCT018 FEW025TCU BKN100 27/24 Q1000 NOSIG
19:30
I
27 °C 2,1 km 9.000 ft 150° 150° 4 kt METAR VABB 151400Z 15004KT 2100 BR FEW012 SCT018 FEW025TCU OVC090 27/24 Q1000 NOSIG
19:00
I
27 °C 2,1 km 9.000 ft 170° 170° 3 kt METAR VABB 151330Z 17003KT 2100 BR FEW012 SCT018 FEW025TCU OVC090 27/24 Q1000 NOSIG
18:30
I
27 °C 2,5 km 8.000 ft 210° 210° 3 kt METAR VABB 151300Z 21003KT 2500 BR SCT010 SCT018 FEW025TCU OVC080 27/24 Q0999 NOSIG
18:00
I
26 °C 2,5 km 8.000 ft 210° 210° 3 kt METAR VABB 151230Z 21003KT 2500 BR SCT010 SCT018 FEW025TCU OVC080 26/24 Q0999 NOSIG
17:30
I
26 °C 2,1 km 8.000 ft 220° 220° 4 kt METAR VABB 151200Z 22004KT 2100 BR SCT010 SCT015 FEW030CB OVC080 26/24 Q0999 TEMPO 1500 SHRA
17:00
I
26 °C 2,1 km 8.000 ft 250° 250° 5 kt METAR VABB 151130Z 25005KT 2100 BR SCT010 SCT015 FEW030CB OVC080 26/24 Q0999 TEMPO 1500 SHRA
16:30
I
26 °C 2,1 km 8.000 ft 260° 260° 7 kt METAR VABB 151100Z 26007KT 2100 -RA SCT010 SCT015 FEW030CB OVC080 26/24 Q0999 TEMPO 1500 SHRA
16:00
I
26 °C 2,1 km 8.000 ft 260° 260° 8 kt METAR VABB 151030Z 26008KT 2100 -RA SCT010 SCT015 FEW030CB OVC080 26/25 Q0999 TEMPO 1500 SHRA
15:30
I
26 °C 1,6 km 8.000 ft 330° 330° 4 kt METAR VABB 151000Z 33004KT 1600 -RA SCT010 SCT015 FEW030CB OVC080 26/24 Q0999 TEMPO 0800 +SHRA
15:00
I
27 °C 2,1 km 8.000 ft 010° 010° 4 kt METAR VABB 150930Z 01004KT 2100 VCSH SCT010 SCT015 FEW030CB OVC080 27/24 Q1000 TEMPO 1500 SHRA
14:30
I
27 °C 2,5 km 8.000 ft 220° 220° 7 kt METAR VABB 150900Z 22007KT 2500 BR SCT010 SCT018 FEW030CB OVC080 27/25 Q1000 TEMPO 1500 SHRA
14:00
I
27 °C 2,1 km 8.000 ft 190° 190° 8 kt METAR VABB 150830Z 19008KT 2100 -RA SCT010 SCT015 FEW030CB OVC080 27/25 Q1000 TEMPO 1500 SHRA
13:30
I
26 °C 2,1 km 8.000 ft 180° 180° 6 kt METAR VABB 150800Z 18006KT 2100 -RA SCT010 SCT015 FEW030CB OVC080 26/25 Q1001 TEMPO 1500 SHRA
13:00
L
27 °C 600 m 8.000 ft 360° 360° 0 kt METAR VABB 150730Z 00000KT 0600 R27/0700 +RA SCT010 SCT015 FEW030CB OVC080 27/25 Q1001 TEMPO 0350 +SHRA
12:30
L
27 °C 1,2 km 8.000 ft 180° 180° 5 kt METAR VABB 150700Z 18005KT 1200 R27/1600 RA SCT010 SCT015 FEW030CB OVC080 27/26 Q1001 TEMPO 0800 +SHRA
12:00
L
26 °C 600 m 8.000 ft 160° 160° 3 kt METAR VABB 150630Z 16003KT 0600 R27/0800 +RA SCT010 SCT015 FEW030CB OVC080 26/26 Q1001 TEMPO 0350 +SHRA
11:30
L
27 °C 1,4 km 8.000 ft 160° 160° 4 kt METAR VABB 150600Z 16004KT 1400 R27/1900 -RA SCT010 SCT015 FEW030CB OVC080 27/26 Q1001 TEMPO 0800 +SHRA
Segnala modifiche